createdAt,value
2017-01-12T00:00:05.381Z,85.51
2017-01-12T00:00:35.409Z,85.51
2017-01-12T00:01:05.441Z,85.04
2017-01-12T00:01:35.470Z,85.23
2017-01-12T00:02:05.503Z,85.42
2017-01-12T00:02:35.530Z,85.23
2017-01-12T00:03:05.558Z,85.13
2017-01-12T00:03:35.590Z,85.13
2017-01-12T00:04:05.625Z,84.75
2017-01-12T00:04:35.654Z,84.75
2017-01-12T00:05:05.681Z,84.85
2017-01-12T00:05:35.713Z,84.75
2017-01-12T00:06:05.744Z,84.38
2017-01-12T00:06:35.775Z,84.56
2017-01-12T00:07:05.804Z,84.56
2017-01-12T00:07:35.830Z,84.75
2017-01-12T00:08:05.861Z,84.75
2017-01-12T00:08:35.897Z,84.66
2017-01-12T00:09:05.922Z,84.47
2017-01-12T00:09:35.949Z,84.47
2017-01-12T00:10:05.985Z,84.75
2017-01-12T00:10:36.015Z,84.85
2017-01-12T00:11:06.047Z,84.66
2017-01-12T00:11:36.077Z,84.94
2017-01-12T00:12:06.102Z,85.04
2017-01-12T00:12:36.130Z,84.75
2017-01-12T00:13:06.161Z,84.85
2017-01-12T00:13:36.195Z,85.04
2017-01-12T00:14:06.224Z,85.04
2017-01-12T00:14:36.254Z,85.13
2017-01-12T00:15:06.284Z,85.23
2017-01-12T00:15:36.308Z,85.13
2017-01-12T00:16:06.341Z,84.94
2017-01-12T00:16:36.376Z,85.04
2017-01-12T00:17:06.407Z,85.13
2017-01-12T00:17:36.430Z,85.42
2017-01-12T00:18:06.474Z,85.51
2017-01-12T00:18:36.495Z,85.51
2017-01-12T00:19:06.525Z,85.7
2017-01-12T00:19:36.555Z,85.51
2017-01-12T00:20:06.585Z,85.42
2017-01-12T00:20:36.607Z,85.99
2017-01-12T00:21:06.643Z,85.89
2017-01-12T00:21:36.668Z,85.8
2017-01-12T00:22:06.702Z,86.18
2017-01-12T00:22:36.733Z,86.27
2017-01-12T00:23:06.765Z,86.46
2017-01-12T00:23:36.790Z,86.36
2017-01-12T00:24:06.825Z,86.46
2017-01-12T00:24:36.855Z,86.46
2017-01-12T00:25:06.883Z,86.46
2017-01-12T00:25:36.912Z,86.55
2017-01-12T00:26:06.941Z,86.27
2017-01-12T00:26:36.972Z,86.46
2017-01-12T00:27:07.001Z,86.46
2017-01-12T00:27:37.032Z,86.36
2017-01-12T00:28:07.063Z,86.27
2017-01-12T00:28:37.095Z,86.36
2017-01-12T00:29:07.120Z,86.65
2017-01-12T00:29:37.149Z,86.74
2017-01-12T00:30:07.189Z,86.46
2017-01-12T00:30:37.507Z,86.36
2017-01-12T00:31:07.245Z,86.08
2017-01-12T00:31:37.275Z,86.46
2017-01-12T00:32:07.309Z,86.46
2017-01-12T00:32:37.332Z,86.27
2017-01-12T00:33:07.361Z,86.46
2017-01-12T00:33:37.390Z,86.08
2017-01-12T00:34:07.417Z,86.27
2017-01-12T00:34:37.452Z,86.46
2017-01-12T00:35:07.483Z,86.55
2017-01-12T00:35:37.562Z,86.74
2017-01-12T00:36:07.542Z,86.93
2017-01-12T00:36:37.575Z,86.55
2017-01-12T00:37:07.600Z,86.55
2017-01-12T00:37:37.632Z,86.65
2017-01-12T00:38:07.661Z,86.55
2017-01-12T00:38:37.690Z,86.46
2017-01-12T00:39:07.720Z,86.46
2017-01-12T00:39:37.751Z,86.83
2017-01-12T00:40:07.779Z,87.02
2017-01-12T00:40:37.811Z,86.74
2017-01-12T00:41:07.840Z,86.55
2017-01-12T00:41:37.868Z,86.65
2017-01-12T00:42:07.906Z,86.55
2017-01-12T00:42:37.928Z,86.55
2017-01-12T00:43:07.961Z,86.46
2017-01-12T00:43:37.990Z,86.55
2017-01-12T00:44:08.174Z,86.55
2017-01-12T00:44:38.047Z,87.31
2017-01-12T00:45:08.082Z,87.02
2017-01-12T00:45:38.113Z,87.21
2017-01-12T00:46:08.142Z,87.31
2017-01-12T00:46:38.168Z,87.4
2017-01-12T00:47:08.203Z,86.93
2017-01-12T00:47:38.228Z,87.4
2017-01-12T00:48:08.263Z,87.31
2017-01-12T00:48:38.295Z,86.93
2017-01-12T00:49:08.319Z,86.83
2017-01-12T00:49:38.357Z,86.46
2017-01-12T00:50:08.378Z,86.74
2017-01-12T00:50:38.410Z,86.83
2017-01-12T00:51:08.438Z,86.93
2017-01-12T00:51:38.471Z,87.4
2017-01-12T00:52:08.496Z,87.31
2017-01-12T00:52:38.530Z,87.4
2017-01-12T00:53:08.562Z,87.31
2017-01-12T00:53:38.595Z,87.12
2017-01-12T00:54:08.620Z,87.4
2017-01-12T00:54:38.654Z,87.31
2017-01-12T00:55:08.680Z,86.93
2017-01-12T00:55:38.711Z,87.31
2017-01-12T00:56:08.743Z,87.21
2017-01-12T00:56:38.769Z,87.21
2017-01-12T00:57:08.801Z,87.12
2017-01-12T00:57:38.832Z,87.4
2017-01-12T00:58:08.873Z,87.31
2017-01-12T00:58:38.889Z,87.02
2017-01-12T00:59:08.931Z,87.5
2017-01-12T00:59:38.961Z,87.12
2017-01-12T01:00:08.982Z,86.74
2017-01-12T01:00:39.019Z,86.93
2017-01-12T01:01:09.046Z,86.93
2017-01-12T01:01:39.073Z,86.55
2017-01-12T01:02:09.108Z,86.93
2017-01-12T01:02:39.131Z,86.93
2017-01-12T01:03:09.159Z,86.36
2017-01-12T01:03:39.188Z,86.74
2017-01-12T01:04:09.222Z,86.83
2017-01-12T01:04:39.253Z,86.74
2017-01-12T01:05:09.279Z,86.83
2017-01-12T01:05:39.314Z,87.31
2017-01-12T01:06:09.342Z,87.4
2017-01-12T01:06:39.368Z,86.93
2017-01-12T01:07:09.402Z,87.12
2017-01-12T01:07:39.432Z,87.31
2017-01-12T01:08:09.464Z,87.31
2017-01-12T01:08:39.491Z,87.31
2017-01-12T01:09:09.523Z,87.31
2017-01-12T01:09:39.553Z,87.21
2017-01-12T01:10:09.582Z,87.31
2017-01-12T01:10:39.609Z,87.31
2017-01-12T01:11:09.639Z,86.93
2017-01-12T01:11:39.675Z,86.46
2017-01-12T01:12:09.702Z,86.74
2017-01-12T01:12:39.732Z,86.74
2017-01-12T01:13:09.762Z,87.02
2017-01-12T01:13:39.795Z,87.31
2017-01-12T01:14:09.825Z,87.5
2017-01-12T01:14:39.848Z,86.93
2017-01-12T01:15:09.879Z,87.12
2017-01-12T01:15:39.912Z,86.55
2017-01-12T01:16:09.943Z,86.55
2017-01-12T01:16:39.965Z,85.8
2017-01-12T01:17:10.011Z,85.8
2017-01-12T01:17:40.029Z,85.89
2017-01-12T01:18:10.063Z,85.89
2017-01-12T01:18:40.093Z,86.18
2017-01-12T01:19:10.121Z,85.42
2017-01-12T01:19:40.153Z,85.51
2017-01-12T01:20:10.179Z,85.61
2017-01-12T01:20:40.212Z,85.42
2017-01-12T01:21:10.241Z,85.23
2017-01-12T01:21:40.573Z,85.7
2017-01-12T01:22:10.303Z,85.8
2017-01-12T01:22:40.336Z,85.7
2017-01-12T01:23:10.362Z,85.89
2017-01-12T01:23:40.392Z,85.42
2017-01-12T01:24:10.423Z,85.42
2017-01-12T01:24:40.453Z,85.51
2017-01-12T01:25:10.481Z,85.51
2017-01-12T01:25:40.508Z,84.85
2017-01-12T01:26:10.543Z,85.04
2017-01-12T01:26:40.572Z,84.56
2017-01-12T01:27:10.601Z,84.47
2017-01-12T01:27:40.634Z,84.56
2017-01-12T01:28:10.692Z,84.38
2017-01-12T01:28:40.691Z,84.75
2017-01-12T01:29:10.723Z,84.28
2017-01-12T01:29:40.752Z,84.47
2017-01-12T01:30:10.781Z,84.66
2017-01-12T01:30:40.815Z,84.75
2017-01-12T01:31:10.845Z,84.28
2017-01-12T01:31:40.873Z,84.66
2017-01-12T01:32:10.903Z,84.56
2017-01-12T01:32:40.936Z,84.38
2017-01-12T01:33:10.966Z,85.13
2017-01-12T01:33:40.985Z,84.56
2017-01-12T01:34:11.021Z,84.47
2017-01-12T01:34:41.050Z,84.66
2017-01-12T01:35:11.076Z,84.85
2017-01-12T01:35:41.112Z,84.75
2017-01-12T01:36:11.139Z,85.23
2017-01-12T01:36:41.170Z,85.23
2017-01-12T01:37:11.202Z,85.51
2017-01-12T01:37:41.233Z,85.32
2017-01-12T01:38:11.267Z,85.32
2017-01-12T01:38:41.289Z,85.42
2017-01-12T01:39:11.319Z,84.94
2017-01-12T01:39:41.350Z,85.13
2017-01-12T01:40:11.391Z,84.94
2017-01-12T01:40:41.410Z,85.7
2017-01-12T01:41:11.440Z,85.51
2017-01-12T01:41:41.471Z,85.42
2017-01-12T01:42:11.508Z,85.23
2017-01-12T01:42:41.523Z,85.23
2017-01-12T01:43:11.560Z,85.51
2017-01-12T01:43:41.592Z,85.23
2017-01-12T01:44:11.620Z,85.42
2017-01-12T01:44:41.651Z,85.51
2017-01-12T01:45:11.680Z,85.51
2017-01-12T01:45:41.711Z,85.51
2017-01-12T01:46:11.751Z,85.13
2017-01-12T01:46:41.781Z,85.13
2017-01-12T01:47:11.804Z,84.94
2017-01-12T01:47:41.831Z,85.23
2017-01-12T01:48:11.861Z,85.42
2017-01-12T01:48:41.895Z,85.04
2017-01-12T01:49:11.925Z,85.23
2017-01-12T01:49:41.953Z,85.42
2017-01-12T01:50:11.980Z,84.85
2017-01-12T01:50:42.012Z,84.94
2017-01-12T01:51:12.042Z,85.13
2017-01-12T01:51:42.077Z,85.04
2017-01-12T01:52:12.103Z,85.13
2017-01-12T01:52:42.138Z,85.04
2017-01-12T01:53:12.163Z,85.04
2017-01-12T01:53:42.193Z,85.42
2017-01-12T01:54:12.225Z,85.32
2017-01-12T01:54:42.257Z,85.23
2017-01-12T01:55:12.281Z,84.94
2017-01-12T01:55:42.314Z,85.23
2017-01-12T01:56:12.344Z,84.85
2017-01-12T01:56:42.379Z,85.04
2017-01-12T01:57:12.414Z,84.75
2017-01-12T01:57:42.436Z,84.85
2017-01-12T01:58:12.461Z,85.23
2017-01-12T01:58:42.492Z,84.94
2017-01-12T01:59:12.524Z,85.13
2017-01-12T01:59:42.556Z,85.13
2017-01-12T02:00:12.588Z,85.04
2017-01-12T02:00:42.614Z,84.94
2017-01-12T02:01:12.643Z,85.61
2017-01-12T02:01:42.681Z,85.04
2017-01-12T02:02:12.703Z,85.13
2017-01-12T02:02:43.036Z,84.94
2017-01-12T02:03:12.764Z,85.04
2017-01-12T02:03:42.794Z,85.8
2017-01-12T02:04:12.825Z,85.8
2017-01-12T02:04:42.852Z,85.42
2017-01-12T02:05:12.885Z,85.23
2017-01-12T02:05:42.917Z,85.04
2017-01-12T02:06:12.944Z,85.04
2017-01-12T02:06:42.973Z,85.42
2017-01-12T02:07:13.004Z,84.94
2017-01-12T02:07:43.035Z,85.23
2017-01-12T02:08:13.065Z,85.13
2017-01-12T02:08:43.100Z,85.04
2017-01-12T02:09:13.128Z,85.04
2017-01-12T02:09:43.158Z,85.42
2017-01-12T02:10:13.185Z,85.7
2017-01-12T02:10:43.219Z,85.8
2017-01-12T02:11:13.248Z,85.51
2017-01-12T02:11:43.275Z,85.51
2017-01-12T02:12:13.309Z,85.42
2017-01-12T02:12:43.337Z,85.13
2017-01-12T02:13:13.367Z,85.23
2017-01-12T02:13:43.400Z,85.13
2017-01-12T02:14:13.433Z,85.13
2017-01-12T02:14:43.460Z,85.04
2017-01-12T02:15:13.490Z,85.04
2017-01-12T02:15:43.516Z,85.13
2017-01-12T02:16:13.552Z,85.23
2017-01-12T02:16:43.580Z,85.13
2017-01-12T02:17:13.615Z,85.13
2017-01-12T02:17:43.640Z,85.13
2017-01-12T02:18:13.667Z,85.42
2017-01-12T02:18:43.700Z,85.23
2017-01-12T02:19:13.734Z,85.23
2017-01-12T02:19:43.761Z,84.94
2017-01-12T02:20:13.794Z,85.23
2017-01-12T02:20:43.817Z,84.94
2017-01-12T02:21:13.854Z,85.61
2017-01-12T02:21:43.879Z,84.94
2017-01-12T02:22:13.911Z,85.23
2017-01-12T02:22:43.941Z,85.32
2017-01-12T02:23:13.981Z,85.04
2017-01-12T02:23:44.000Z,84.94
2017-01-12T02:24:14.038Z,85.23
2017-01-12T02:24:44.061Z,85.23
2017-01-12T02:25:14.097Z,85.32
2017-01-12T02:25:44.123Z,85.8
2017-01-12T02:26:14.149Z,85.32
2017-01-12T02:26:44.179Z,85.32
2017-01-12T02:27:14.210Z,85.32
2017-01-12T02:27:44.243Z,85.42
2017-01-12T02:28:14.273Z,85.51
2017-01-12T02:28:44.303Z,85.61
2017-01-12T02:29:14.330Z,85.32
2017-01-12T02:29:44.361Z,85.51
2017-01-12T02:30:14.388Z,85.42
2017-01-12T02:30:44.423Z,85.61
2017-01-12T02:31:14.449Z,85.42
2017-01-12T02:31:44.482Z,85.42
2017-01-12T02:32:14.510Z,85.61
2017-01-12T02:32:44.542Z,85.51
2017-01-12T02:33:14.573Z,85.51
2017-01-12T02:33:44.604Z,85.51
2017-01-12T02:34:14.632Z,85.42
2017-01-12T02:34:44.663Z,85.51
2017-01-12T02:35:14.693Z,85.23
2017-01-12T02:35:44.720Z,85.61
2017-01-12T02:36:14.754Z,85.51
2017-01-12T02:36:44.785Z,85.51
2017-01-12T02:37:14.813Z,85.23
2017-01-12T02:37:44.840Z,85.51
2017-01-12T02:38:14.872Z,85.8
2017-01-12T02:38:44.903Z,85.51
2017-01-12T02:39:14.935Z,85.7
2017-01-12T02:39:44.965Z,85.23
2017-01-12T02:40:14.993Z,85.61
2017-01-12T02:40:45.023Z,85.42
2017-01-12T02:41:15.062Z,85.61
2017-01-12T02:41:45.085Z,85.8
2017-01-12T02:42:15.126Z,85.42
2017-01-12T02:42:45.147Z,85.51
2017-01-12T02:43:15.177Z,85.42
2017-01-12T02:43:45.210Z,85.04
2017-01-12T02:44:15.235Z,85.04
2017-01-12T02:44:45.274Z,85.13
2017-01-12T02:45:15.295Z,85.42
2017-01-12T02:45:45.323Z,85.23
2017-01-12T02:46:15.358Z,85.23
2017-01-12T02:46:45.387Z,85.23
2017-01-12T02:47:15.418Z,85.04
2017-01-12T02:47:45.452Z,84.94
2017-01-12T02:48:15.478Z,85.32
2017-01-12T02:48:45.805Z,84.94
2017-01-12T02:49:15.542Z,85.04
2017-01-12T02:49:45.571Z,85.32
2017-01-12T02:50:15.606Z,85.42
2017-01-12T02:50:45.631Z,85.61
2017-01-12T02:51:15.657Z,85.7
2017-01-12T02:51:45.691Z,85.42
2017-01-12T02:52:15.720Z,85.32
2017-01-12T02:52:45.751Z,85.51
2017-01-12T02:53:15.781Z,85.51
2017-01-12T02:53:45.811Z,85.42
2017-01-12T02:54:15.839Z,85.23
2017-01-12T02:54:45.873Z,85.42
2017-01-12T02:55:15.896Z,85.61
2017-01-12T02:55:45.929Z,85.42
2017-01-12T02:56:15.976Z,85.51
2017-01-12T02:56:45.993Z,85.61
2017-01-12T02:57:16.025Z,85.42
2017-01-12T02:57:46.055Z,85.8
2017-01-12T02:58:16.082Z,85.51
2017-01-12T02:58:46.111Z,85.42
2017-01-12T02:59:16.143Z,85.51
2017-01-12T02:59:46.172Z,85.42
2017-01-12T03:00:16.202Z,85.13
2017-01-12T03:00:46.230Z,85.89
2017-01-12T03:01:16.265Z,85.7
2017-01-12T03:01:46.302Z,85.8
2017-01-12T03:02:16.328Z,85.89
2017-01-12T03:02:46.354Z,85.99
2017-01-12T03:03:16.381Z,85.8
2017-01-12T03:03:46.421Z,85.84
2017-01-12T03:04:16.446Z,85.36
2017-01-12T03:04:46.476Z,85.55
2017-01-12T03:05:16.507Z,85.46
2017-01-12T03:05:46.541Z,85.42
2017-01-12T03:06:16.567Z,85.27
2017-01-12T03:06:46.599Z,84.94
2017-01-12T03:07:16.624Z,85.17
2017-01-12T03:07:46.654Z,84.89
2017-01-12T03:08:16.686Z,85.27
2017-01-12T03:08:46.716Z,84.99
2017-01-12T03:09:16.850Z,85.08
2017-01-12T03:09:46.779Z,85.08
2017-01-12T03:10:16.841Z,85.17
2017-01-12T03:10:46.837Z,85.04
2017-01-12T03:11:16.872Z,84.89
2017-01-12T03:11:46.897Z,85.08
2017-01-12T03:12:16.929Z,85.13
2017-01-12T03:12:46.962Z,85.27
2017-01-12T03:13:16.986Z,85.17
2017-01-12T03:13:47.020Z,85.17
2017-01-12T03:14:17.048Z,84.8
2017-01-12T03:14:47.075Z,84.8
2017-01-12T03:15:17.112Z,84.7
2017-01-12T03:15:47.136Z,84.61
2017-01-12T03:16:17.175Z,84.61
2017-01-12T03:16:47.203Z,84.51
2017-01-12T03:17:17.232Z,84.8
2017-01-12T03:17:47.259Z,84.61
2017-01-12T03:18:17.294Z,84.89
2017-01-12T03:18:47.324Z,84.61
2017-01-12T03:19:17.349Z,83.85
2017-01-12T03:19:47.379Z,83.94
2017-01-12T03:20:17.413Z,84
2017-01-12T03:20:47.442Z,84.32
2017-01-12T03:21:17.469Z,84.51
2017-01-12T03:21:47.507Z,84.42
2017-01-12T03:22:17.535Z,84.32
2017-01-12T03:22:47.564Z,84.32
2017-01-12T03:23:17.598Z,84.38
2017-01-12T03:23:47.626Z,83.75
2017-01-12T03:24:17.651Z,83.66
2017-01-12T03:24:47.685Z,84.19
2017-01-12T03:25:17.715Z,83.9
2017-01-12T03:25:47.743Z,83.94
2017-01-12T03:26:17.774Z,83.85
2017-01-12T03:26:47.805Z,83.81
2017-01-12T03:27:17.838Z,83.81
2017-01-12T03:27:47.864Z,83.71
2017-01-12T03:28:17.900Z,83.94
2017-01-12T03:28:47.928Z,84.04
2017-01-12T03:29:17.959Z,84.04
2017-01-12T03:29:47.993Z,83.94
2017-01-12T03:30:18.015Z,84.13
2017-01-12T03:30:48.047Z,83.66
2017-01-12T03:31:18.073Z,83.66
2017-01-12T03:31:48.112Z,83.94
2017-01-12T03:32:18.139Z,83.85
2017-01-12T03:32:48.170Z,84.13
2017-01-12T03:33:18.198Z,84.23
2017-01-12T03:33:48.233Z,83.94
2017-01-12T03:34:18.260Z,83.81
2017-01-12T03:34:48.588Z,83.94
2017-01-12T03:35:18.319Z,83.75
2017-01-12T03:35:48.349Z,83.75
2017-01-12T03:36:18.377Z,84.23
2017-01-12T03:36:48.411Z,84.04
2017-01-12T03:37:18.451Z,84.13
2017-01-12T03:37:48.470Z,83.94
2017-01-12T03:38:18.505Z,83.85
2017-01-12T03:38:48.530Z,83.66
2017-01-12T03:39:18.562Z,83.47
2017-01-12T03:39:48.592Z,83.37
2017-01-12T03:40:18.624Z,83.56
2017-01-12T03:40:48.653Z,83.37
2017-01-12T03:41:18.685Z,83.37
2017-01-12T03:41:48.717Z,83.66
2017-01-12T03:42:18.746Z,83.85
2017-01-12T03:42:48.775Z,84.04
2017-01-12T03:43:18.808Z,83.66
2017-01-12T03:43:48.835Z,83.94
2017-01-12T03:44:18.866Z,83.47
2017-01-12T03:44:48.894Z,83.56
2017-01-12T03:45:18.932Z,83.47
2017-01-12T03:45:48.963Z,83.28
2017-01-12T03:46:18.993Z,83.47
2017-01-12T03:46:49.020Z,83.28
2017-01-12T03:47:19.053Z,83.47
2017-01-12T03:47:49.079Z,83.37
2017-01-12T03:48:19.108Z,83.28
2017-01-12T03:48:49.138Z,83.28
2017-01-12T03:49:19.175Z,83.56
2017-01-12T03:49:49.207Z,83.37
2017-01-12T03:50:19.234Z,83.37
2017-01-12T03:50:49.266Z,83.37
2017-01-12T03:51:19.291Z,83.37
2017-01-12T03:51:49.327Z,83.28
2017-01-12T03:52:19.351Z,83.56
2017-01-12T03:52:49.382Z,83.18
2017-01-12T03:53:19.416Z,83.18
2017-01-12T03:53:49.446Z,83
2017-01-12T03:54:19.474Z,82.9
2017-01-12T03:54:49.502Z,83.18
2017-01-12T03:55:19.738Z,82.62
2017-01-12T03:55:49.562Z,82.81
2017-01-12T03:56:19.594Z,82.71
2017-01-12T03:56:49.622Z,82.43
2017-01-12T03:57:19.656Z,82.62
2017-01-12T03:57:49.683Z,82.71
2017-01-12T03:58:19.715Z,82.43
2017-01-12T03:58:49.746Z,82.71
2017-01-12T03:59:19.777Z,82.62
2017-01-12T03:59:49.810Z,82.62
2017-01-12T04:00:19.841Z,82.71
2017-01-12T04:00:49.868Z,82.71
2017-01-12T04:01:19.900Z,82.62
2017-01-12T04:01:49.932Z,82.81
2017-01-12T04:02:19.953Z,83.09
2017-01-12T04:02:49.989Z,82.81
2017-01-12T04:03:20.023Z,82.71
2017-01-12T04:03:50.048Z,82.52
2017-01-12T04:04:20.081Z,82.62
2017-01-12T04:04:50.119Z,82.33
2017-01-12T04:05:20.142Z,82.24
2017-01-12T04:05:50.173Z,82.43
2017-01-12T04:06:20.206Z,82.33
2017-01-12T04:06:50.235Z,82.05
2017-01-12T04:07:20.258Z,82.52
2017-01-12T04:07:50.296Z,82.43
2017-01-12T04:08:20.324Z,82.33
2017-01-12T04:08:50.358Z,82.43
2017-01-12T04:09:20.383Z,82.14
2017-01-12T04:09:50.416Z,82.24
2017-01-12T04:10:20.448Z,82.43
2017-01-12T04:10:50.475Z,82.14
2017-01-12T04:11:20.506Z,82.52
2017-01-12T04:11:50.540Z,82.71
2017-01-12T04:12:20.567Z,82.24
2017-01-12T04:12:50.595Z,82.43
2017-01-12T04:13:20.627Z,82.43
2017-01-12T04:13:50.660Z,82.62
2017-01-12T04:14:20.689Z,82.43
2017-01-12T04:14:50.717Z,82.62
2017-01-12T04:15:20.748Z,82.52
2017-01-12T04:15:50.784Z,82.24
2017-01-12T04:16:20.811Z,82.62
2017-01-12T04:16:50.841Z,82.43
2017-01-12T04:17:20.873Z,82.24
2017-01-12T04:17:50.902Z,82.33
2017-01-12T04:18:20.930Z,82.33
2017-01-12T04:18:50.963Z,82.62
2017-01-12T04:19:20.990Z,82.33
2017-01-12T04:19:51.023Z,82.33
2017-01-12T04:20:21.058Z,82.43
2017-01-12T04:20:51.080Z,82.24
2017-01-12T04:21:21.115Z,82.33
2017-01-12T04:21:51.142Z,82.14
2017-01-12T04:22:21.177Z,82.33
2017-01-12T04:22:51.201Z,82.05
2017-01-12T04:23:21.228Z,82.14
2017-01-12T04:23:51.264Z,82.05
2017-01-12T04:24:21.296Z,81.95
2017-01-12T04:24:51.323Z,81.76
2017-01-12T04:25:21.359Z,82.24
2017-01-12T04:25:51.387Z,82.14
2017-01-12T04:26:21.414Z,81.86
2017-01-12T04:26:51.449Z,81.76
2017-01-12T04:27:21.480Z,81.95
2017-01-12T04:27:51.504Z,81.95
2017-01-12T04:28:21.538Z,81.76
2017-01-12T04:28:51.717Z,82.05
2017-01-12T04:29:21.601Z,82.05
2017-01-12T04:29:51.631Z,81.76
2017-01-12T04:30:21.662Z,81.95
2017-01-12T04:30:51.688Z,82.14
2017-01-12T04:31:21.721Z,82.33
2017-01-12T04:31:51.750Z,81.95
2017-01-12T04:32:21.787Z,82.33
2017-01-12T04:32:51.813Z,81.95
2017-01-12T04:33:21.843Z,82.14
2017-01-12T04:33:51.872Z,82.14
2017-01-12T04:34:21.903Z,82.05
2017-01-12T04:34:51.936Z,81.95
2017-01-12T04:35:21.964Z,82.33
2017-01-12T04:35:51.999Z,82.43
2017-01-12T04:36:22.326Z,82.52
2017-01-12T04:36:52.058Z,82.62
2017-01-12T04:37:22.086Z,82.43
2017-01-12T04:37:52.117Z,82.43
2017-01-12T04:38:22.147Z,82.9
2017-01-12T04:38:52.187Z,82.33
2017-01-12T04:39:22.205Z,82.33
2017-01-12T04:39:52.249Z,82.14
2017-01-12T04:40:22.265Z,82.24
2017-01-12T04:40:52.298Z,82.33
2017-01-12T04:41:22.332Z,82.52
2017-01-12T04:41:52.357Z,82.52
2017-01-12T04:42:22.391Z,82.43
2017-01-12T04:42:52.446Z,82.62
2017-01-12T04:43:22.452Z,82.62
2017-01-12T04:43:52.481Z,82.43
2017-01-12T04:44:22.511Z,81.86
2017-01-12T04:44:52.540Z,81.86
2017-01-12T04:45:22.574Z,81.67
2017-01-12T04:45:52.607Z,81.86
2017-01-12T04:46:22.631Z,81.95
2017-01-12T04:46:52.664Z,81.86
2017-01-12T04:47:22.697Z,81.48
2017-01-12T04:47:52.732Z,81.67
2017-01-12T04:48:22.756Z,81.67
2017-01-12T04:48:52.781Z,81.48
2017-01-12T04:49:22.815Z,81.67
2017-01-12T04:49:52.846Z,81.48
2017-01-12T04:50:22.878Z,81.38
2017-01-12T04:50:52.904Z,81.57
2017-01-12T04:51:22.934Z,81.67
2017-01-12T04:51:52.967Z,81.67
2017-01-12T04:52:22.993Z,81.67
2017-01-12T04:52:53.030Z,81.67
2017-01-12T04:53:23.059Z,81.67
2017-01-12T04:53:53.088Z,81.48
2017-01-12T04:54:23.118Z,81.57
2017-01-12T04:54:53.150Z,81.57
2017-01-12T04:55:23.179Z,81.67
2017-01-12T04:55:53.214Z,81.1
2017-01-12T04:56:23.239Z,81.48
2017-01-12T04:56:53.275Z,80.91
2017-01-12T04:57:23.330Z,81.48
2017-01-12T04:57:53.336Z,81.57
2017-01-12T04:58:23.361Z,81.48
2017-01-12T04:58:53.403Z,81.67
2017-01-12T04:59:23.422Z,81.57
2017-01-12T04:59:53.453Z,81.57
2017-01-12T05:00:23.482Z,81.38
2017-01-12T05:00:53.514Z,81.01
2017-01-12T05:01:23.548Z,81.1
2017-01-12T05:01:53.580Z,81.1
2017-01-12T05:02:23.610Z,81.2
2017-01-12T05:02:53.639Z,81.57
2017-01-12T05:03:23.675Z,81.38
2017-01-12T05:03:53.702Z,81.38
2017-01-12T05:04:23.732Z,81.67
2017-01-12T05:04:53.760Z,81.48
2017-01-12T05:05:23.789Z,80.82
2017-01-12T05:05:53.818Z,81.67
2017-01-12T05:06:23.852Z,81.57
2017-01-12T05:06:53.879Z,81.48
2017-01-12T05:07:23.910Z,81.67
2017-01-12T05:07:53.940Z,81.57
2017-01-12T05:08:23.973Z,81.57
2017-01-12T05:08:54.002Z,81.01
2017-01-12T05:09:24.031Z,81.29
2017-01-12T05:09:54.064Z,81.01
2017-01-12T05:10:24.091Z,80.82
2017-01-12T05:10:54.124Z,81.57
2017-01-12T05:11:24.153Z,80.82
2017-01-12T05:11:54.186Z,81.29
2017-01-12T05:12:24.216Z,81.29
2017-01-12T05:12:54.248Z,81.57
2017-01-12T05:13:24.276Z,81.67
2017-01-12T05:13:54.303Z,81.57
2017-01-12T05:14:24.337Z,81.01
2017-01-12T05:14:54.367Z,81.57
2017-01-12T05:15:24.397Z,81.1
2017-01-12T05:15:54.425Z,81.57
2017-01-12T05:16:24.453Z,81.29
2017-01-12T05:16:54.486Z,81.57
2017-01-12T05:17:24.522Z,81.2
2017-01-12T05:17:54.546Z,81.67
2017-01-12T05:18:24.581Z,81.01
2017-01-12T05:18:54.610Z,80.82
2017-01-12T05:19:24.635Z,81.57
2017-01-12T05:19:54.672Z,81.67
2017-01-12T05:20:24.706Z,80.82
2017-01-12T05:20:54.730Z,81.67
2017-01-12T05:21:24.762Z,81.48
2017-01-12T05:21:54.786Z,81.48
2017-01-12T05:22:24.821Z,81.48
2017-01-12T05:22:54.853Z,81.57
2017-01-12T05:23:24.882Z,81.57
2017-01-12T05:23:54.914Z,81.67
2017-01-12T05:24:24.944Z,81.57
2017-01-12T05:24:54.975Z,81.67
2017-01-12T05:25:25.003Z,81.48
2017-01-12T05:25:55.032Z,81.67
2017-01-12T05:26:25.065Z,81.57
2017-01-12T05:26:55.094Z,81.01
2017-01-12T05:27:25.127Z,81.67
2017-01-12T05:27:55.157Z,81.76
2017-01-12T05:28:25.188Z,80.91
2017-01-12T05:28:55.217Z,81.2
2017-01-12T05:29:25.249Z,81.67
2017-01-12T05:29:55.277Z,81.67
2017-01-12T05:30:25.309Z,81.57
2017-01-12T05:30:55.337Z,81.67
2017-01-12T05:31:25.372Z,81.67
2017-01-12T05:31:55.397Z,81.01
2017-01-12T05:32:25.425Z,81.01
2017-01-12T05:32:55.460Z,80.91
2017-01-12T05:33:25.492Z,80.91
2017-01-12T05:33:55.522Z,81.1
2017-01-12T05:34:25.551Z,80.82
2017-01-12T05:34:55.582Z,80.72
2017-01-12T05:35:25.614Z,80.91
2017-01-12T05:35:55.640Z,81.1
2017-01-12T05:36:25.671Z,81.01
2017-01-12T05:36:55.703Z,81.01
2017-01-12T05:37:25.730Z,80.91
2017-01-12T05:37:55.763Z,80.91
2017-01-12T05:38:25.792Z,80.82
2017-01-12T05:38:55.824Z,81.01
2017-01-12T05:39:25.853Z,81.01
2017-01-12T05:39:55.888Z,81.1
2017-01-12T05:40:25.912Z,81.2
2017-01-12T05:40:55.945Z,81.48
2017-01-12T05:41:25.976Z,81.57
2017-01-12T05:41:56.033Z,81.57
2017-01-12T05:42:26.033Z,81.57
2017-01-12T05:42:56.072Z,81.57
2017-01-12T05:43:26.097Z,81.29
2017-01-12T05:43:56.130Z,81.29
2017-01-12T05:44:26.156Z,81.2
2017-01-12T05:44:56.191Z,81.48
2017-01-12T05:45:26.248Z,81.67
2017-01-12T05:45:56.251Z,81.57
2017-01-12T05:46:26.278Z,81.67
2017-01-12T05:46:56.312Z,81.48
2017-01-12T05:47:26.341Z,81.67
2017-01-12T05:47:56.401Z,81.48
2017-01-12T05:48:26.402Z,81.67
2017-01-12T05:48:56.429Z,81.2
2017-01-12T05:49:26.459Z,81.48
2017-01-12T05:49:56.499Z,81.48
2017-01-12T05:50:26.523Z,81.67
2017-01-12T05:50:56.556Z,81.48
2017-01-12T05:51:26.588Z,81.48
2017-01-12T05:51:56.614Z,81.57
2017-01-12T05:52:26.639Z,81.38
2017-01-12T05:52:56.674Z,81.53
2017-01-12T05:53:26.702Z,81.76
2017-01-12T05:53:56.733Z,81.63
2017-01-12T05:54:26.771Z,81.63
2017-01-12T05:54:56.793Z,81.67
2017-01-12T05:55:26.823Z,81.48
2017-01-12T05:55:56.860Z,81.76
2017-01-12T05:56:26.883Z,81.76
2017-01-12T05:56:56.922Z,81.95
2017-01-12T05:57:26.943Z,81.86
2017-01-12T05:57:56.977Z,82.05
2017-01-12T05:58:27.005Z,81.67
2017-01-12T05:58:57.038Z,81.76
2017-01-12T05:59:27.067Z,81.86
2017-01-12T05:59:57.095Z,81.76
2017-01-12T06:00:27.129Z,81.86
2017-01-12T06:00:57.157Z,81.76
2017-01-12T06:01:27.189Z,81.72
2017-01-12T06:01:57.218Z,82.14
2017-01-12T06:02:27.253Z,81.72
2017-01-12T06:02:57.279Z,81.92
2017-01-12T06:03:27.309Z,81.86
2017-01-12T06:03:57.338Z,81.82
2017-01-12T06:04:27.372Z,81.95
2017-01-12T06:04:57.403Z,81.82
2017-01-12T06:05:27.426Z,82.05
2017-01-12T06:05:57.461Z,81.95
2017-01-12T06:06:27.487Z,81.76
2017-01-12T06:06:57.520Z,81.95
2017-01-12T06:07:27.551Z,81.95
2017-01-12T06:07:57.581Z,81.95
2017-01-12T06:08:27.619Z,81.76
2017-01-12T06:08:57.643Z,81.95
2017-01-12T06:09:27.675Z,82.01
2017-01-12T06:09:57.702Z,81.95
2017-01-12T06:10:27.732Z,81.92
2017-01-12T06:10:57.765Z,81.76
2017-01-12T06:11:27.791Z,81.76
2017-01-12T06:11:57.822Z,81.76
2017-01-12T06:12:27.853Z,81.95
2017-01-12T06:12:57.885Z,81.86
2017-01-12T06:13:27.914Z,81.86
2017-01-12T06:13:57.947Z,81.82
2017-01-12T06:14:27.980Z,81.95
2017-01-12T06:14:58.005Z,81.95
2017-01-12T06:15:28.038Z,81.86
2017-01-12T06:15:58.069Z,81.92
2017-01-12T06:16:28.092Z,82.01
2017-01-12T06:16:58.127Z,82.05
2017-01-12T06:17:28.152Z,81.86
2017-01-12T06:17:58.188Z,81.95
2017-01-12T06:18:28.215Z,81.92
2017-01-12T06:18:58.250Z,82.14
2017-01-12T06:19:28.281Z,81.95
2017-01-12T06:19:58.309Z,81.95
2017-01-12T06:20:28.339Z,81.72
2017-01-12T06:20:58.366Z,81.82
2017-01-12T06:21:28.399Z,82.29
2017-01-12T06:21:58.432Z,81.95
2017-01-12T06:22:28.457Z,82.14
2017-01-12T06:22:58.490Z,82.14
2017-01-12T06:23:28.520Z,82.01
2017-01-12T06:23:58.552Z,82.29
2017-01-12T06:24:28.584Z,81.82
2017-01-12T06:24:58.787Z,81.95
2017-01-12T06:25:28.647Z,81.95
2017-01-12T06:25:58.670Z,81.82
2017-01-12T06:26:28.702Z,81.72
2017-01-12T06:26:58.732Z,82.05
2017-01-12T06:27:28.761Z,81.86